Tropical Cyclones
[Index]
Main Index Home Page Stock Weather Photos Extreme Storms Discussion Storm News and Storm Chasing Reports Tropical Cyclones / Hurricanes / Typhoons Weather Data and Links Wild Fires / Bushfires Weather Observation Techniques Weather Picture Catalogue Tornado Pictures and Reports Stock Video Footage and DVDs for sale
Season 2002-2003 Tropical Cyclone CRAIG Track Map
Season 2002-2003 Summaries (Operational Data): [AU] [SIO] [SPAC] [SH]
<<- Previous TC | 2002-2003 Season | Next TC ->>

click for intensity scale information  Lat/long Grid: Show Hide

 Date Labels: Show Hide

Operational Tropical Cyclone Data : JTWC Advisories

Name: CRAIG
Number: 0324

07 Mar 2003 22:00 UTC to 12 Mar 2003 18:00 UTC

    date/time    lat    long     hPa   cat  kts
2003-03-07 22   12.0   129.5    1002         25          
2003-03-08 00   11.7   129.5    1002         25          
2003-03-08 06   11.6   128.8     998         30          
2003-03-08 12   11.1   128.6     998         30          
2003-03-08 18   11.0   129.0     997         30          
2003-03-09 00   11.0   129.0     995         30          
2003-03-09 05   11.0   129.0     992    1    35          
2003-03-09 06   11.0   129.0     992    1    40          
2003-03-09 12   10.8   129.4     990    1    40          
2003-03-09 18   10.6   130.3     988    1    45          
2003-03-10 00   10.8   130.5     985    2    50          
2003-03-10 06   11.2   130.9     985    2    50          
2003-03-10 12   11.3   131.1     985    2    50          
2003-03-10 18   11.5   131.4     985    2    55          
2003-03-11 00   11.7   132.2     980    2    55          
2003-03-11 06   11.9   133.0     980    2    55          
2003-03-11 12   12.3   134.4     990    1    40          
2003-03-11 18   12.1   136.0     988    1    40          
2003-03-12 00   13.0   138.0     988    1    40          
2003-03-12 06   14.5   140.5     985    2    50          
2003-03-12 11   16.5   141.7     990    1    40          
2003-03-12 13   17.3   141.5     997         30          
2003-03-12 18   16.3   142.0                             
Winds are 10-min average.

Tropical cyclone tracks developed by Michael Bath using operational warnings and advisories and Google Maps.


[Australian Severe Weather index] [Copyright Notice] [Email Contacts] [Search This Site] [Privacy Policy]
Document: tropical_cyclone_craig.htm Updated: 2 May 2017